sensor_id;sensor_type;location;lat;lon;timestamp;P1;durP1;ratioP1;P2;durP2;ratioP2
9449;SDS011;4763;48.370;10.874;2023-10-19T00:00:47;48.00;;;35.67;;
9449;SDS011;4763;48.370;10.874;2023-10-19T00:03:15;46.27;;;34.57;;
9449;SDS011;4763;48.370;10.874;2023-10-19T00:05:43;47.30;;;35.20;;
9449;SDS011;4763;48.370;10.874;2023-10-19T00:08:12;46.43;;;34.80;;
9449;SDS011;4763;48.370;10.874;2023-10-19T00:10:45;45.87;;;33.97;;
9449;SDS011;4763;48.370;10.874;2023-10-19T00:13:13;44.30;;;34.20;;
9449;SDS011;4763;48.370;10.874;2023-10-19T00:15:41;40.07;;;30.93;;
9449;SDS011;4763;48.370;10.874;2023-10-19T00:18:14;45.63;;;31.10;;
9449;SDS011;4763;48.370;10.874;2023-10-19T00:20:49;42.33;;;29.67;;
9449;SDS011;4763;48.370;10.874;2023-10-19T00:23:24;39.97;;;30.07;;
9449;SDS011;4763;48.370;10.874;2023-10-19T00:25:57;39.33;;;29.83;;
9449;SDS011;4763;48.370;10.874;2023-10-19T00:28:24;50.00;;;32.63;;
9449;SDS011;4763;48.370;10.874;2023-10-19T00:30:52;44.80;;;32.23;;
9449;SDS011;4763;48.370;10.874;2023-10-19T00:33:25;41.83;;;30.60;;
9449;SDS011;4763;48.370;10.874;2023-10-19T00:35:53;40.37;;;28.77;;
9449;SDS011;4763;48.370;10.874;2023-10-19T00:38:25;41.23;;;31.30;;
9449;SDS011;4763;48.370;10.874;2023-10-19T00:41:06;48.57;;;34.33;;
9449;SDS011;4763;48.370;10.874;2023-10-19T00:43:45;45.07;;;32.50;;
9449;SDS011;4763;48.370;10.874;2023-10-19T00:46:15;44.67;;;32.03;;
9449;SDS011;4763;48.370;10.874;2023-10-19T00:48:49;42.93;;;31.83;;
9449;SDS011;4763;48.370;10.874;2023-10-19T00:51:19;45.17;;;31.80;;
9449;SDS011;4763;48.370;10.874;2023-10-19T00:54:04;40.80;;;30.33;;
9449;SDS011;4763;48.370;10.874;2023-10-19T00:56:35;38.73;;;28.40;;
9449;SDS011;4763;48.370;10.874;2023-10-19T00:59:06;38.63;;;27.97;;
9449;SDS011;4763;48.370;10.874;2023-10-19T01:01:39;36.37;;;26.20;;
9449;SDS011;4763;48.370;10.874;2023-10-19T01:04:10;34.10;;;25.63;;
9449;SDS011;4763;48.370;10.874;2023-10-19T01:06:39;33.83;;;25.33;;
9449;SDS011;4763;48.370;10.874;2023-10-19T01:09:10;34.63;;;25.90;;
9449;SDS011;4763;48.370;10.874;2023-10-19T01:11:40;32.10;;;24.90;;
9449;SDS011;4763;48.370;10.874;2023-10-19T01:14:20;41.87;;;28.37;;
9449;SDS011;4763;48.370;10.874;2023-10-19T01:16:48;37.20;;;25.63;;
9449;SDS011;4763;48.370;10.874;2023-10-19T01:19:17;35.97;;;25.30;;
9449;SDS011;4763;48.370;10.874;2023-10-19T01:21:45;37.17;;;25.97;;
9449;SDS011;4763;48.370;10.874;2023-10-19T01:24:18;39.50;;;27.67;;
9449;SDS011;4763;48.370;10.874;2023-10-19T01:26:52;37.80;;;26.13;;
9449;SDS011;4763;48.370;10.874;2023-10-19T01:29:22;33.47;;;25.20;;
9449;SDS011;4763;48.370;10.874;2023-10-19T01:31:52;34.37;;;23.63;;
9449;SDS011;4763;48.370;10.874;2023-10-19T01:34:21;28.30;;;22.03;;
9449;SDS011;4763;48.370;10.874;2023-10-19T01:36:48;26.37;;;18.80;;
9449;SDS011;4763;48.370;10.874;2023-10-19T01:39:15;25.43;;;19.53;;
9449;SDS011;4763;48.370;10.874;2023-10-19T01:41:45;24.43;;;17.30;;
9449;SDS011;4763;48.370;10.874;2023-10-19T01:44:11;24.73;;;18.03;;
9449;SDS011;4763;48.370;10.874;2023-10-19T01:46:40;24.70;;;18.03;;
9449;SDS011;4763;48.370;10.874;2023-10-19T01:49:08;21.70;;;16.53;;
9449;SDS011;4763;48.370;10.874;2023-10-19T01:51:36;23.20;;;16.27;;
9449;SDS011;4763;48.370;10.874;2023-10-19T01:54:03;25.03;;;17.97;;
9449;SDS011;4763;48.370;10.874;2023-10-19T01:56:31;22.40;;;16.73;;
9449;SDS011;4763;48.370;10.874;2023-10-19T01:59:02;22.03;;;17.53;;
9449;SDS011;4763;48.370;10.874;2023-10-19T02:01:29;24.53;;;17.07;;
9449;SDS011;4763;48.370;10.874;2023-10-19T02:03:57;23.77;;;17.77;;
9449;SDS011;4763;48.370;10.874;2023-10-19T02:06:26;24.43;;;17.30;;
9449;SDS011;4763;48.370;10.874;2023-10-19T02:08:55;25.63;;;16.73;;
9449;SDS011;4763;48.370;10.874;2023-10-19T02:11:25;24.57;;;17.17;;
9449;SDS011;4763;48.370;10.874;2023-10-19T02:13:54;28.67;;;18.53;;
9449;SDS011;4763;48.370;10.874;2023-10-19T02:16:26;24.93;;;17.93;;
9449;SDS011;4763;48.370;10.874;2023-10-19T02:18:54;22.87;;;17.57;;
9449;SDS011;4763;48.370;10.874;2023-10-19T02:21:20;21.63;;;16.47;;
9449;SDS011;4763;48.370;10.874;2023-10-19T02:23:48;23.43;;;16.83;;
9449;SDS011;4763;48.370;10.874;2023-10-19T02:26:16;25.40;;;17.10;;
9449;SDS011;4763;48.370;10.874;2023-10-19T02:28:45;19.90;;;16.03;;
9449;SDS011;4763;48.370;10.874;2023-10-19T02:31:11;22.13;;;15.00;;
9449;SDS011;4763;48.370;10.874;2023-10-19T02:33:45;20.17;;;15.53;;
9449;SDS011;4763;48.370;10.874;2023-10-19T02:36:11;20.87;;;16.30;;
9449;SDS011;4763;48.370;10.874;2023-10-19T02:38:41;21.47;;;15.83;;
9449;SDS011;4763;48.370;10.874;2023-10-19T02:41:09;21.20;;;15.50;;
9449;SDS011;4763;48.370;10.874;2023-10-19T02:43:36;19.40;;;15.43;;
9449;SDS011;4763;48.370;10.874;2023-10-19T02:46:03;21.63;;;15.00;;
9449;SDS011;4763;48.370;10.874;2023-10-19T02:48:30;23.17;;;15.87;;
9449;SDS011;4763;48.370;10.874;2023-10-19T02:50:57;20.07;;;15.17;;
9449;SDS011;4763;48.370;10.874;2023-10-19T02:53:31;21.43;;;14.67;;
9449;SDS011;4763;48.370;10.874;2023-10-19T02:55:58;22.17;;;14.90;;
9449;SDS011;4763;48.370;10.874;2023-10-19T02:58:27;19.63;;;15.37;;
9449;SDS011;4763;48.370;10.874;2023-10-19T03:00:53;17.73;;;14.70;;
9449;SDS011;4763;48.370;10.874;2023-10-19T03:03:20;17.80;;;14.23;;
9449;SDS011;4763;48.370;10.874;2023-10-19T03:05:47;19.63;;;14.33;;
9449;SDS011;4763;48.370;10.874;2023-10-19T03:08:15;16.50;;;13.60;;
9449;SDS011;4763;48.370;10.874;2023-10-19T03:10:41;19.67;;;13.90;;
9449;SDS011;4763;48.370;10.874;2023-10-19T03:13:08;17.23;;;13.57;;
9449;SDS011;4763;48.370;10.874;2023-10-19T03:15:34;16.23;;;13.20;;
9449;SDS011;4763;48.370;10.874;2023-10-19T03:18:04;18.07;;;13.03;;
9449;SDS011;4763;48.370;10.874;2023-10-19T03:20:30;16.70;;;12.83;;
9449;SDS011;4763;48.370;10.874;2023-10-19T03:22:58;17.03;;;13.07;;
9449;SDS011;4763;48.370;10.874;2023-10-19T03:25:27;19.80;;;13.40;;
9449;SDS011;4763;48.370;10.874;2023-10-19T03:28:08;19.87;;;14.33;;
9449;SDS011;4763;48.370;10.874;2023-10-19T03:30:36;20.23;;;14.17;;
9449;SDS011;4763;48.370;10.874;2023-10-19T03:33:04;14.67;;;11.60;;
9449;SDS011;4763;48.370;10.874;2023-10-19T03:35:33;16.77;;;12.03;;
9449;SDS011;4763;48.370;10.874;2023-10-19T03:38:02;18.47;;;12.73;;
9449;SDS011;4763;48.370;10.874;2023-10-19T03:40:34;17.47;;;12.93;;
9449;SDS011;4763;48.370;10.874;2023-10-19T03:43:04;14.90;;;12.40;;
9449;SDS011;4763;48.370;10.874;2023-10-19T03:45:42;17.20;;;12.77;;
9449;SDS011;4763;48.370;10.874;2023-10-19T03:48:15;16.00;;;12.33;;
9449;SDS011;4763;48.370;10.874;2023-10-19T03:50:43;17.60;;;12.47;;
9449;SDS011;4763;48.370;10.874;2023-10-19T03:53:10;14.10;;;11.47;;
9449;SDS011;4763;48.370;10.874;2023-10-19T03:55:39;17.30;;;12.37;;
9449;SDS011;4763;48.370;10.874;2023-10-19T03:58:08;17.03;;;12.33;;
9449;SDS011;4763;48.370;10.874;2023-10-19T04:00:37;14.00;;;11.53;;
9449;SDS011;4763;48.370;10.874;2023-10-19T04:03:04;14.47;;;11.73;;
9449;SDS011;4763;48.370;10.874;2023-10-19T04:05:31;14.80;;;11.47;;
9449;SDS011;4763;48.370;10.874;2023-10-19T04:08:04;14.97;;;11.83;;
9449;SDS011;4763;48.370;10.874;2023-10-19T04:10:39;14.27;;;11.43;;
9449;SDS011;4763;48.370;10.874;2023-10-19T04:13:11;16.33;;;12.03;;
9449;SDS011;4763;48.370;10.874;2023-10-19T04:15:38;15.50;;;11.30;;
9449;SDS011;4763;48.370;10.874;2023-10-19T04:18:06;16.10;;;12.87;;
9449;SDS011;4763;48.370;10.874;2023-10-19T04:20:36;17.33;;;12.70;;
9449;SDS011;4763;48.370;10.874;2023-10-19T04:23:20;17.87;;;12.23;;
9449;SDS011;4763;48.370;10.874;2023-10-19T04:25:49;16.07;;;12.93;;
9449;SDS011;4763;48.370;10.874;2023-10-19T04:28:17;20.90;;;17.50;;
9449;SDS011;4763;48.370;10.874;2023-10-19T04:30:55;19.53;;;14.07;;
9449;SDS011;4763;48.370;10.874;2023-10-19T04:33:25;16.07;;;12.53;;
9449;SDS011;4763;48.370;10.874;2023-10-19T04:35:53;18.67;;;12.93;;
9449;SDS011;4763;48.370;10.874;2023-10-19T04:38:21;14.97;;;13.30;;
9449;SDS011;4763;48.370;10.874;2023-10-19T04:40:49;17.37;;;14.07;;
9449;SDS011;4763;48.370;10.874;2023-10-19T04:43:16;17.23;;;14.50;;
9449;SDS011;4763;48.370;10.874;2023-10-19T04:45:43;17.60;;;12.43;;
9449;SDS011;4763;48.370;10.874;2023-10-19T04:48:10;18.87;;;12.53;;
9449;SDS011;4763;48.370;10.874;2023-10-19T04:50:37;17.40;;;12.67;;
9449;SDS011;4763;48.370;10.874;2023-10-19T04:53:04;20.47;;;11.80;;
9449;SDS011;4763;48.370;10.874;2023-10-19T04:55:31;13.50;;;11.50;;
9449;SDS011;4763;48.370;10.874;2023-10-19T04:58:00;19.30;;;12.57;;
9449;SDS011;4763;48.370;10.874;2023-10-19T05:00:27;14.57;;;11.73;;
9449;SDS011;4763;48.370;10.874;2023-10-19T05:02:53;15.73;;;11.40;;
9449;SDS011;4763;48.370;10.874;2023-10-19T05:05:20;15.73;;;12.20;;
9449;SDS011;4763;48.370;10.874;2023-10-19T05:07:47;13.73;;;11.80;;
9449;SDS011;4763;48.370;10.874;2023-10-19T05:10:14;13.37;;;10.90;;
9449;SDS011;4763;48.370;10.874;2023-10-19T05:12:40;14.97;;;11.97;;
9449;SDS011;4763;48.370;10.874;2023-10-19T05:15:09;16.63;;;12.63;;
9449;SDS011;4763;48.370;10.874;2023-10-19T05:17:36;15.70;;;12.50;;
9449;SDS011;4763;48.370;10.874;2023-10-19T05:20:03;15.33;;;11.53;;
9449;SDS011;4763;48.370;10.874;2023-10-19T05:22:34;15.73;;;11.60;;
9449;SDS011;4763;48.370;10.874;2023-10-19T05:25:00;13.83;;;11.87;;
9449;SDS011;4763;48.370;10.874;2023-10-19T05:27:28;15.00;;;11.33;;
9449;SDS011;4763;48.370;10.874;2023-10-19T05:29:55;15.27;;;11.10;;
9449;SDS011;4763;48.370;10.874;2023-10-19T05:32:23;15.10;;;11.97;;
9449;SDS011;4763;48.370;10.874;2023-10-19T05:34:50;16.03;;;11.20;;
9449;SDS011;4763;48.370;10.874;2023-10-19T05:37:16;14.97;;;10.47;;
9449;SDS011;4763;48.370;10.874;2023-10-19T05:39:43;16.67;;;11.17;;
9449;SDS011;4763;48.370;10.874;2023-10-19T05:42:11;14.50;;;11.13;;
9449;SDS011;4763;48.370;10.874;2023-10-19T05:44:38;15.43;;;12.13;;
9449;SDS011;4763;48.370;10.874;2023-10-19T05:47:05;16.03;;;12.07;;
9449;SDS011;4763;48.370;10.874;2023-10-19T05:49:34;16.77;;;12.07;;
9449;SDS011;4763;48.370;10.874;2023-10-19T05:52:01;16.33;;;13.33;;
9449;SDS011;4763;48.370;10.874;2023-10-19T05:54:28;17.40;;;11.97;;
9449;SDS011;4763;48.370;10.874;2023-10-19T05:56:55;15.20;;;12.37;;
9449;SDS011;4763;48.370;10.874;2023-10-19T05:59:22;15.87;;;12.57;;
9449;SDS011;4763;48.370;10.874;2023-10-19T06:01:54;17.17;;;12.67;;
9449;SDS011;4763;48.370;10.874;2023-10-19T06:04:21;14.83;;;13.03;;
9449;SDS011;4763;48.370;10.874;2023-10-19T06:06:49;15.93;;;12.40;;
9449;SDS011;4763;48.370;10.874;2023-10-19T06:09:16;16.37;;;12.47;;
9449;SDS011;4763;48.370;10.874;2023-10-19T06:11:44;15.03;;;11.53;;
9449;SDS011;4763;48.370;10.874;2023-10-19T06:14:11;16.23;;;12.37;;
9449;SDS011;4763;48.370;10.874;2023-10-19T06:16:38;15.70;;;12.87;;
9449;SDS011;4763;48.370;10.874;2023-10-19T06:19:05;19.87;;;13.60;;
9449;SDS011;4763;48.370;10.874;2023-10-19T06:21:31;14.97;;;12.50;;
9449;SDS011;4763;48.370;10.874;2023-10-19T06:24:00;15.20;;;11.90;;
9449;SDS011;4763;48.370;10.874;2023-10-19T06:26:27;14.00;;;11.90;;
9449;SDS011;4763;48.370;10.874;2023-10-19T06:28:54;13.23;;;11.43;;
9449;SDS011;4763;48.370;10.874;2023-10-19T06:31:24;15.43;;;12.87;;
9449;SDS011;4763;48.370;10.874;2023-10-19T06:33:51;15.17;;;11.60;;
9449;SDS011;4763;48.370;10.874;2023-10-19T06:36:18;15.20;;;12.33;;
9449;SDS011;4763;48.370;10.874;2023-10-19T06:38:45;14.03;;;11.17;;
9449;SDS011;4763;48.370;10.874;2023-10-19T06:41:14;18.97;;;12.33;;
9449;SDS011;4763;48.370;10.874;2023-10-19T06:43:43;17.00;;;13.50;;
9449;SDS011;4763;48.370;10.874;2023-10-19T06:46:10;18.40;;;12.37;;
9449;SDS011;4763;48.370;10.874;2023-10-19T06:48:37;14.63;;;11.80;;
9449;SDS011;4763;48.370;10.874;2023-10-19T06:51:04;18.67;;;12.10;;
9449;SDS011;4763;48.370;10.874;2023-10-19T06:53:31;15.30;;;11.93;;
9449;SDS011;4763;48.370;10.874;2023-10-19T06:55:58;17.77;;;12.27;;
9449;SDS011;4763;48.370;10.874;2023-10-19T06:58:26;14.17;;;12.57;;
9449;SDS011;4763;48.370;10.874;2023-10-19T07:00:53;14.23;;;11.23;;
9449;SDS011;4763;48.370;10.874;2023-10-19T07:03:25;16.33;;;12.50;;
9449;SDS011;4763;48.370;10.874;2023-10-19T07:05:53;16.00;;;11.37;;
9449;SDS011;4763;48.370;10.874;2023-10-19T07:08:21;19.73;;;12.07;;
9449;SDS011;4763;48.370;10.874;2023-10-19T07:10:48;13.60;;;11.37;;
9449;SDS011;4763;48.370;10.874;2023-10-19T07:13:15;14.07;;;11.97;;
9449;SDS011;4763;48.370;10.874;2023-10-19T07:15:45;14.03;;;11.97;;
9449;SDS011;4763;48.370;10.874;2023-10-19T07:18:12;13.40;;;11.10;;
9449;SDS011;4763;48.370;10.874;2023-10-19T07:20:39;12.83;;;11.03;;
9449;SDS011;4763;48.370;10.874;2023-10-19T07:23:07;14.00;;;11.63;;
9449;SDS011;4763;48.370;10.874;2023-10-19T07:25:43;17.10;;;11.57;;
9449;SDS011;4763;48.370;10.874;2023-10-19T07:28:11;14.47;;;10.70;;
9449;SDS011;4763;48.370;10.874;2023-10-19T07:30:38;15.23;;;12.07;;
9449;SDS011;4763;48.370;10.874;2023-10-19T07:33:07;15.20;;;11.73;;
9449;SDS011;4763;48.370;10.874;2023-10-19T07:35:35;12.27;;;10.77;;
9449;SDS011;4763;48.370;10.874;2023-10-19T07:38:04;15.10;;;10.70;;
9449;SDS011;4763;48.370;10.874;2023-10-19T07:40:32;11.07;;;9.53;;
9449;SDS011;4763;48.370;10.874;2023-10-19T07:42:59;12.70;;;10.77;;
9449;SDS011;4763;48.370;10.874;2023-10-19T07:45:26;14.57;;;10.60;;
9449;SDS011;4763;48.370;10.874;2023-10-19T07:47:53;17.00;;;10.43;;
9449;SDS011;4763;48.370;10.874;2023-10-19T07:50:21;11.10;;;9.90;;
9449;SDS011;4763;48.370;10.874;2023-10-19T07:52:49;10.60;;;9.50;;
9449;SDS011;4763;48.370;10.874;2023-10-19T07:55:17;13.47;;;10.40;;
9449;SDS011;4763;48.370;10.874;2023-10-19T07:57:45;10.53;;;9.43;;
9449;SDS011;4763;48.370;10.874;2023-10-19T08:00:15;14.73;;;10.37;;
9449;SDS011;4763;48.370;10.874;2023-10-19T08:02:43;10.43;;;8.93;;
9449;SDS011;4763;48.370;10.874;2023-10-19T08:05:11;16.20;;;9.67;;
9449;SDS011;4763;48.370;10.874;2023-10-19T08:07:39;14.03;;;9.50;;
9449;SDS011;4763;48.370;10.874;2023-10-19T08:10:08;13.87;;;10.07;;
9449;SDS011;4763;48.370;10.874;2023-10-19T08:12:36;11.67;;;9.83;;
9449;SDS011;4763;48.370;10.874;2023-10-19T08:15:04;15.63;;;9.70;;
9449;SDS011;4763;48.370;10.874;2023-10-19T08:17:32;10.50;;;8.63;;
9449;SDS011;4763;48.370;10.874;2023-10-19T08:19:59;13.40;;;10.77;;
9449;SDS011;4763;48.370;10.874;2023-10-19T08:22:27;13.27;;;10.03;;
9449;SDS011;4763;48.370;10.874;2023-10-19T08:24:56;11.77;;;10.10;;
9449;SDS011;4763;48.370;10.874;2023-10-19T08:27:23;16.57;;;11.20;;
9449;SDS011;4763;48.370;10.874;2023-10-19T08:29:50;15.10;;;9.90;;
9449;SDS011;4763;48.370;10.874;2023-10-19T08:32:20;16.23;;;9.63;;
9449;SDS011;4763;48.370;10.874;2023-10-19T08:34:47;13.47;;;10.33;;
9449;SDS011;4763;48.370;10.874;2023-10-19T08:37:14;12.67;;;10.13;;
9449;SDS011;4763;48.370;10.874;2023-10-19T08:39:40;10.83;;;9.13;;
9449;SDS011;4763;48.370;10.874;2023-10-19T08:42:09;19.27;;;9.57;;
9449;SDS011;4763;48.370;10.874;2023-10-19T08:44:36;13.73;;;9.20;;
9449;SDS011;4763;48.370;10.874;2023-10-19T08:47:03;13.73;;;10.50;;
9449;SDS011;4763;48.370;10.874;2023-10-19T08:49:33;18.27;;;10.83;;
9449;SDS011;4763;48.370;10.874;2023-10-19T08:52:01;13.33;;;10.00;;
9449;SDS011;4763;48.370;10.874;2023-10-19T08:54:29;11.87;;;9.63;;
9449;SDS011;4763;48.370;10.874;2023-10-19T08:56:58;10.97;;;9.87;;
9449;SDS011;4763;48.370;10.874;2023-10-19T08:59:27;11.87;;;10.17;;
9449;SDS011;4763;48.370;10.874;2023-10-19T09:01:59;16.40;;;10.33;;
9449;SDS011;4763;48.370;10.874;2023-10-19T09:04:27;11.90;;;9.60;;
9449;SDS011;4763;48.370;10.874;2023-10-19T09:06:54;11.73;;;9.63;;
9449;SDS011;4763;48.370;10.874;2023-10-19T09:09:21;12.13;;;9.77;;
9449;SDS011;4763;48.370;10.874;2023-10-19T09:11:50;12.73;;;9.10;;
9449;SDS011;4763;48.370;10.874;2023-10-19T09:14:30;14.47;;;10.03;;
9449;SDS011;4763;48.370;10.874;2023-10-19T09:17:00;14.07;;;9.23;;
9449;SDS011;4763;48.370;10.874;2023-10-19T09:19:35;11.47;;;10.03;;
9449;SDS011;4763;48.370;10.874;2023-10-19T09:22:03;13.70;;;9.37;;
9449;SDS011;4763;48.370;10.874;2023-10-19T09:24:33;10.33;;;8.97;;
9449;SDS011;4763;48.370;10.874;2023-10-19T09:27:02;13.50;;;9.97;;
9449;SDS011;4763;48.370;10.874;2023-10-19T09:29:29;14.30;;;10.37;;
9449;SDS011;4763;48.370;10.874;2023-10-19T09:31:57;11.33;;;9.37;;
9449;SDS011;4763;48.370;10.874;2023-10-19T09:34:28;14.20;;;9.63;;
9449;SDS011;4763;48.370;10.874;2023-10-19T09:36:58;12.13;;;8.10;;
9449;SDS011;4763;48.370;10.874;2023-10-19T09:39:26;11.10;;;9.47;;
9449;SDS011;4763;48.370;10.874;2023-10-19T09:42:00;14.20;;;9.33;;
9449;SDS011;4763;48.370;10.874;2023-10-19T09:44:30;11.87;;;10.60;;
9449;SDS011;4763;48.370;10.874;2023-10-19T09:47:04;15.50;;;10.23;;
9449;SDS011;4763;48.370;10.874;2023-10-19T09:49:37;12.10;;;9.80;;
9449;SDS011;4763;48.370;10.874;2023-10-19T09:52:04;14.07;;;9.77;;
9449;SDS011;4763;48.370;10.874;2023-10-19T09:54:33;11.47;;;8.50;;
9449;SDS011;4763;48.370;10.874;2023-10-19T09:57:10;13.23;;;9.97;;
9449;SDS011;4763;48.370;10.874;2023-10-19T09:59:42;12.93;;;9.77;;
9449;SDS011;4763;48.370;10.874;2023-10-19T10:02:14;14.07;;;9.57;;
9449;SDS011;4763;48.370;10.874;2023-10-19T10:04:43;11.30;;;9.37;;
9449;SDS011;4763;48.370;10.874;2023-10-19T10:07:10;13.27;;;9.80;;
9449;SDS011;4763;48.370;10.874;2023-10-19T10:09:38;12.13;;;9.67;;
9449;SDS011;4763;48.370;10.874;2023-10-19T10:12:15;14.17;;;10.77;;
9449;SDS011;4763;48.370;10.874;2023-10-19T10:14:52;23.27;;;16.80;;
9449;SDS011;4763;48.370;10.874;2023-10-19T10:17:23;46.67;;;33.03;;
9449;SDS011;4763;48.370;10.874;2023-10-19T10:19:53;32.50;;;21.83;;
9449;SDS011;4763;48.370;10.874;2023-10-19T10:22:22;20.60;;;14.60;;
9449;SDS011;4763;48.370;10.874;2023-10-19T10:24:53;47.40;;;30.47;;
9449;SDS011;4763;48.370;10.874;2023-10-19T10:27:21;25.50;;;18.57;;
9449;SDS011;4763;48.370;10.874;2023-10-19T10:29:55;16.00;;;10.30;;
9449;SDS011;4763;48.370;10.874;2023-10-19T10:32:43;15.57;;;11.47;;
9449;SDS011;4763;48.370;10.874;2023-10-19T10:38:13;16.43;;;10.60;;
9449;SDS011;4763;48.370;10.874;2023-10-19T10:40:42;12.53;;;10.50;;
9449;SDS011;4763;48.370;10.874;2023-10-19T10:43:09;12.73;;;9.50;;
9449;SDS011;4763;48.370;10.874;2023-10-19T10:45:37;13.60;;;9.60;;
9449;SDS011;4763;48.370;10.874;2023-10-19T10:48:05;13.70;;;9.07;;
9449;SDS011;4763;48.370;10.874;2023-10-19T10:50:37;12.73;;;8.97;;
9449;SDS011;4763;48.370;10.874;2023-10-19T10:53:06;12.57;;;8.70;;
9449;SDS011;4763;48.370;10.874;2023-10-19T10:55:33;12.40;;;9.30;;
9449;SDS011;4763;48.370;10.874;2023-10-19T10:58:00;15.03;;;10.57;;
9449;SDS011;4763;48.370;10.874;2023-10-19T11:00:27;10.00;;;8.33;;
9449;SDS011;4763;48.370;10.874;2023-10-19T11:03:01;12.33;;;8.57;;
9449;SDS011;4763;48.370;10.874;2023-10-19T11:05:31;13.10;;;8.57;;
9449;SDS011;4763;48.370;10.874;2023-10-19T11:08:02;10.00;;;8.17;;
9449;SDS011;4763;48.370;10.874;2023-10-19T11:10:31;11.20;;;8.57;;
9449;SDS011;4763;48.370;10.874;2023-10-19T11:12:59;11.73;;;8.60;;
9449;SDS011;4763;48.370;10.874;2023-10-19T11:15:27;12.80;;;8.60;;
9449;SDS011;4763;48.370;10.874;2023-10-19T11:17:54;10.63;;;8.47;;
9449;SDS011;4763;48.370;10.874;2023-10-19T11:20:21;14.97;;;9.50;;
9449;SDS011;4763;48.370;10.874;2023-10-19T11:22:52;14.07;;;8.80;;
9449;SDS011;4763;48.370;10.874;2023-10-19T11:25:21;14.57;;;8.90;;
9449;SDS011;4763;48.370;10.874;2023-10-19T11:27:49;12.77;;;9.20;;
9449;SDS011;4763;48.370;10.874;2023-10-19T11:30:24;11.07;;;7.60;;
9449;SDS011;4763;48.370;10.874;2023-10-19T11:32:51;11.47;;;9.17;;
9449;SDS011;4763;48.370;10.874;2023-10-19T11:35:22;14.10;;;8.30;;
9449;SDS011;4763;48.370;10.874;2023-10-19T11:37:53;11.00;;;8.43;;
9449;SDS011;4763;48.370;10.874;2023-10-19T11:40:20;10.40;;;8.07;;
9449;SDS011;4763;48.370;10.874;2023-10-19T11:42:48;9.80;;;8.37;;
9449;SDS011;4763;48.370;10.874;2023-10-19T11:45:15;8.97;;;8.07;;
9449;SDS011;4763;48.370;10.874;2023-10-19T11:47:42;13.73;;;9.23;;
9449;SDS011;4763;48.370;10.874;2023-10-19T11:50:10;11.70;;;8.13;;
9449;SDS011;4763;48.370;10.874;2023-10-19T11:52:39;10.97;;;8.30;;
9449;SDS011;4763;48.370;10.874;2023-10-19T11:55:07;12.27;;;8.00;;
9449;SDS011;4763;48.370;10.874;2023-10-19T11:57:34;11.13;;;7.80;;
9449;SDS011;4763;48.370;10.874;2023-10-19T12:00:02;7.90;;;6.90;;
9449;SDS011;4763;48.370;10.874;2023-10-19T12:02:34;9.67;;;8.00;;
9449;SDS011;4763;48.370;10.874;2023-10-19T12:05:02;10.00;;;7.40;;
9449;SDS011;4763;48.370;10.874;2023-10-19T12:07:34;10.30;;;8.10;;
9449;SDS011;4763;48.370;10.874;2023-10-19T12:10:02;8.43;;;7.53;;
9449;SDS011;4763;48.370;10.874;2023-10-19T12:12:30;16.33;;;9.23;;
9449;SDS011;4763;48.370;10.874;2023-10-19T12:14:57;10.63;;;8.23;;
9449;SDS011;4763;48.370;10.874;2023-10-19T12:17:24;95.97;;;58.10;;
9449;SDS011;4763;48.370;10.874;2023-10-19T12:19:55;61.47;;;39.57;;
9449;SDS011;4763;48.370;10.874;2023-10-19T12:22:22;27.70;;;19.00;;
9449;SDS011;4763;48.370;10.874;2023-10-19T12:24:53;20.33;;;13.70;;
9449;SDS011;4763;48.370;10.874;2023-10-19T12:27:20;9.43;;;6.73;;
9449;SDS011;4763;48.370;10.874;2023-10-19T12:29:50;8.27;;;6.33;;
9449;SDS011;4763;48.370;10.874;2023-10-19T12:32:17;7.67;;;5.63;;
9449;SDS011;4763;48.370;10.874;2023-10-19T12:34:44;10.47;;;6.40;;
9449;SDS011;4763;48.370;10.874;2023-10-19T12:37:11;10.13;;;6.10;;
9449;SDS011;4763;48.370;10.874;2023-10-19T12:39:38;8.17;;;6.13;;
9449;SDS011;4763;48.370;10.874;2023-10-19T12:42:12;7.13;;;5.60;;
9449;SDS011;4763;48.370;10.874;2023-10-19T12:44:39;7.43;;;5.10;;
9449;SDS011;4763;48.370;10.874;2023-10-19T12:47:09;5.10;;;4.60;;
9449;SDS011;4763;48.370;10.874;2023-10-19T12:49:38;7.20;;;4.70;;
9449;SDS011;4763;48.370;10.874;2023-10-19T12:52:05;6.03;;;3.93;;
9449;SDS011;4763;48.370;10.874;2023-10-19T12:54:33;8.73;;;5.47;;
9449;SDS011;4763;48.370;10.874;2023-10-19T12:57:00;8.10;;;4.33;;
9449;SDS011;4763;48.370;10.874;2023-10-19T12:59:29;7.33;;;4.77;;
9449;SDS011;4763;48.370;10.874;2023-10-19T13:01:56;4.50;;;3.90;;
9449;SDS011;4763;48.370;10.874;2023-10-19T13:04:25;4.90;;;4.00;;
9449;SDS011;4763;48.370;10.874;2023-10-19T13:06:55;7.03;;;4.47;;
9449;SDS011;4763;48.370;10.874;2023-10-19T13:09:23;7.17;;;3.47;;
9449;SDS011;4763;48.370;10.874;2023-10-19T13:11:56;6.40;;;3.87;;
9449;SDS011;4763;48.370;10.874;2023-10-19T13:14:23;7.93;;;4.03;;
9449;SDS011;4763;48.370;10.874;2023-10-19T13:16:50;4.10;;;3.70;;
9449;SDS011;4763;48.370;10.874;2023-10-19T13:19:17;4.17;;;3.40;;
9449;SDS011;4763;48.370;10.874;2023-10-19T13:21:47;4.77;;;3.70;;
9449;SDS011;4763;48.370;10.874;2023-10-19T13:24:15;5.97;;;4.20;;
9449;SDS011;4763;48.370;10.874;2023-10-19T13:26:42;7.57;;;4.87;;
9449;SDS011;4763;48.370;10.874;2023-10-19T13:29:11;4.67;;;3.83;;
9449;SDS011;4763;48.370;10.874;2023-10-19T13:31:38;6.10;;;4.80;;
9449;SDS011;4763;48.370;10.874;2023-10-19T13:34:05;6.93;;;4.40;;
9449;SDS011;4763;48.370;10.874;2023-10-19T13:36:35;6.17;;;4.80;;
9449;SDS011;4763;48.370;10.874;2023-10-19T13:39:05;7.23;;;4.23;;
9449;SDS011;4763;48.370;10.874;2023-10-19T13:41:38;5.50;;;3.93;;
9449;SDS011;4763;48.370;10.874;2023-10-19T13:44:05;5.13;;;4.20;;
9449;SDS011;4763;48.370;10.874;2023-10-19T13:46:31;5.67;;;4.33;;
9449;SDS011;4763;48.370;10.874;2023-10-19T13:48:58;5.50;;;4.17;;
9449;SDS011;4763;48.370;10.874;2023-10-19T13:51:28;8.23;;;4.90;;
9449;SDS011;4763;48.370;10.874;2023-10-19T13:53:56;4.97;;;4.33;;
9449;SDS011;4763;48.370;10.874;2023-10-19T13:56:24;5.50;;;3.87;;
9449;SDS011;4763;48.370;10.874;2023-10-19T13:58:51;6.20;;;4.17;;
9449;SDS011;4763;48.370;10.874;2023-10-19T14:01:18;6.37;;;4.97;;
9449;SDS011;4763;48.370;10.874;2023-10-19T14:03:49;4.70;;;3.83;;
9449;SDS011;4763;48.370;10.874;2023-10-19T14:06:17;5.70;;;3.83;;
9449;SDS011;4763;48.370;10.874;2023-10-19T14:08:44;6.18;;;4.25;;
9449;SDS011;4763;48.370;10.874;2023-10-19T14:11:12;5.57;;;4.40;;
9449;SDS011;4763;48.370;10.874;2023-10-19T14:13:40;12.70;;;4.77;;
9449;SDS011;4763;48.370;10.874;2023-10-19T14:16:07;8.40;;;5.10;;
9449;SDS011;4763;48.370;10.874;2023-10-19T14:18:35;6.83;;;4.53;;
9449;SDS011;4763;48.370;10.874;2023-10-19T14:21:09;7.50;;;4.33;;
9449;SDS011;4763;48.370;10.874;2023-10-19T14:23:37;6.33;;;4.80;;
9449;SDS011;4763;48.370;10.874;2023-10-19T14:26:05;6.30;;;4.40;;
9449;SDS011;4763;48.370;10.874;2023-10-19T14:28:34;5.67;;;4.00;;
9449;SDS011;4763;48.370;10.874;2023-10-19T14:31:02;7.87;;;4.50;;
9449;SDS011;4763;48.370;10.874;2023-10-19T14:33:32;4.37;;;3.90;;
9449;SDS011;4763;48.370;10.874;2023-10-19T14:36:02;4.73;;;4.23;;
9449;SDS011;4763;48.370;10.874;2023-10-19T14:38:29;4.80;;;3.90;;
9449;SDS011;4763;48.370;10.874;2023-10-19T14:40:56;4.33;;;3.87;;
9449;SDS011;4763;48.370;10.874;2023-10-19T14:43:23;4.07;;;3.67;;
9449;SDS011;4763;48.370;10.874;2023-10-19T14:45:50;7.27;;;3.77;;
9449;SDS011;4763;48.370;10.874;2023-10-19T14:48:18;4.43;;;4.03;;
9449;SDS011;4763;48.370;10.874;2023-10-19T14:50:46;5.80;;;3.77;;
9449;SDS011;4763;48.370;10.874;2023-10-19T14:53:15;6.70;;;4.37;;